Time;durP1;ratioP1;P1;durP2;ratioP2;P2;SDS_P1;SDS_P2;PMS_P1;PMS_P2;Temp;Humidity;BMP_temperature;BMP_pressure;BME280_temperature;BME280_humidity;BME280_pressure;Samples;Min_cycle;Max_cycle;Signal;HPM_P1;HPM_P2
2023/12/17 00:01:47;;;;;;;3.20;0.95;;;;;;;27.00;91.26;103632.16;10454710;28;20133;-84
2023/12/17 00:07:18;;;;;;;3.10;1.30;;;;;;;29.41;86.30;103633.63;10441845;28;20561;-86
2023/12/17 00:12:19;;;;;;;0.22;0.22;;;;;;;27.54;86.93;103648.88;10430749;28;20496;-84
2023/12/17 00:17:21;;;;;;;2.22;1.40;;;;;;;27.93;87.85;103645.25;10447540;28;20057;-84
2023/12/17 00:22:23;;;;;;;2.20;0.90;;;;;;;26.11;91.03;103641.66;10432556;28;20037;-84
2023/12/17 00:27:25;;;;;;;1.90;1.25;;;;;;;26.17;91.72;103630.22;10418289;28;20052;-84
2023/12/17 00:32:27;;;;;;;3.10;1.65;;;;;;;26.25;92.51;103621.44;10443071;28;20098;-84
2023/12/17 00:37:29;;;;;;;3.13;1.63;;;;;;;27.33;89.44;103611.84;10437579;28;20136;-85
2023/12/17 00:42:31;;;;;;;1.35;1.25;;;;;;;26.96;91.20;103611.88;10425172;28;20045;-85
2023/12/17 00:47:33;;;;;;;2.00;0.75;;;;;;;28.20;87.79;103614.22;10432835;28;20060;-85
2023/12/17 00:52:35;;;;;;;1.27;0.70;;;;;;;27.34;91.07;103613.59;10453182;28;20041;-84
2023/12/17 00:57:37;;;;;;;3.53;0.85;;;;;;;26.96;90.02;103614.53;10444547;28;20041;-84
2023/12/17 01:02:39;;;;;;;1.73;1.20;;;;;;;28.77;87.38;103619.16;10456591;28;20041;-86
2023/12/17 01:07:41;;;;;;;2.90;1.20;;;;;;;27.67;89.30;103625.00;10437018;28;20079;-85
2023/12/17 01:12:43;;;;;;;1.90;1.30;;;;;;;28.13;88.33;103627.50;10452447;28;20550;-85
2023/12/17 01:17:45;;;;;;;3.92;2.10;;;;;;;27.15;88.33;103640.09;10453547;28;20057;-85
2023/12/17 01:22:47;;;;;;;1.45;0.68;;;;;;;27.27;88.69;103630.38;10467159;28;20026;-84
2023/12/17 01:27:49;;;;;;;1.60;1.00;;;;;;;27.77;88.93;103624.09;10463279;28;20053;-85
2023/12/17 01:32:51;;;;;;;1.00;0.90;;;;;;;27.13;88.88;103619.81;10460549;28;20055;-84
2023/12/17 01:37:53;;;;;;;2.00;0.65;;;;;;;27.81;87.08;103625.84;10456931;28;20040;-86
2023/12/17 01:42:56;;;;;;;0.70;0.43;;;;;;;26.95;89.28;103618.94;10468553;28;20040;-85
2023/12/17 01:47:58;;;;;;;1.23;0.60;;;;;;;28.65;84.26;103613.06;10445634;28;20052;-86
2023/12/17 01:53:00;;;;;;;1.73;0.95;;;;;;;27.36;86.92;103617.16;10448302;28;20069;-85
2023/12/17 01:58:02;;;;;;;0.50;0.50;;;;;;;27.41;87.80;103625.94;10441173;28;20484;-85
2023/12/17 02:03:04;;;;;;;0.82;0.65;;;;;;;27.21;87.97;103618.94;10459901;28;20560;-84
2023/12/17 02:08:06;;;;;;;7.68;0.85;;;;;;;28.01;86.90;103616.94;10458345;28;20051;-84
2023/12/17 02:13:10;;;;;;;0.43;0.25;;;;;;;27.95;85.55;103611.69;10440827;28;20139;-85
2023/12/17 02:18:12;;;;;;;5.05;1.63;;;;;;;26.86;87.35;103603.94;10435035;28;20052;-84
2023/12/17 02:23:14;;;;;;;0.52;0.47;;;;;;;27.52;86.60;103605.63;10438440;28;20051;-85
2023/12/17 02:28:15;;;;;;;0.47;0.35;;;;;;;26.56;87.19;103603.00;10453110;28;20718;-84
2023/12/17 02:33:17;;;;;;;0.40;0.15;;;;;;;27.89;86.57;103607.28;10450624;28;20098;-85
2023/12/17 02:38:19;;;;;;;1.38;0.88;;;;;;;28.41;83.09;103605.25;10432708;28;20136;-86
2023/12/17 02:43:21;;;;;;;0.47;0.22;;;;;;;26.27;88.36;103619.69;10433670;28;20132;-85
2023/12/17 02:48:22;;;;;;;0.32;0.28;;;;;;;26.94;84.00;103618.94;10452110;28;20041;-83
2023/12/17 02:53:24;;;;;;;0.40;0.32;;;;;;;27.00;84.80;103618.91;10463200;28;20040;-84
2023/12/17 02:58:26;;;;;;;1.58;0.50;;;;;;;26.82;84.45;103610.13;10436777;28;20057;-83
2023/12/17 03:03:28;;;;;;;2.25;1.23;;;;;;;26.51;86.07;103609.19;10441781;28;20103;-85
2023/12/17 03:08:30;;;;;;;0.38;0.30;;;;;;;27.42;84.05;103601.28;10445808;28;21789;-85
2023/12/17 03:13:31;;;;;;;1.27;0.63;;;;;;;28.82;80.83;103596.13;10450661;28;20132;-85
2023/12/17 03:18:33;;;;;;;0.80;0.47;;;;;;;27.20;84.26;103596.00;10434622;28;20090;-86
2023/12/17 03:23:35;;;;;;;0.93;0.20;;;;;;;28.47;83.51;103595.50;10445521;28;20045;-86
2023/12/17 03:28:37;;;;;;;0.63;0.30;;;;;;;26.70;84.24;103583.63;10445065;28;20476;-85
2023/12/17 03:33:39;;;;;;;0.40;0.28;;;;;;;26.97;84.33;103572.19;10433413;28;20041;-84
2023/12/17 03:38:43;;;;;;;1.13;1.02;;;;;;;27.75;82.86;103578.19;10448158;28;20248;-86
2023/12/17 03:43:45;;;;;;;0.00;0.00;;;;;;;27.68;82.09;103581.75;10446941;28;20491;-84
2023/12/17 03:48:46;;;;;;;1.00;0.95;;;;;;;27.24;84.78;103560.69;10459262;28;20044;-85
2023/12/17 03:53:48;;;;;;;0.38;0.28;;;;;;;26.40;84.11;103556.28;10445150;28;20130;-84
2023/12/17 03:58:50;;;;;;;0.15;0.15;;;;;;;24.76;87.09;103564.25;10444054;28;20456;-84
2023/12/17 04:03:52;;;;;;;0.10;0.10;;;;;;;28.33;81.01;103560.25;10436666;28;20675;-86
2023/12/17 04:08:54;;;;;;;0.35;0.35;;;;;;;28.90;81.40;103557.13;10427746;28;20057;-85
2023/12/17 04:13:56;;;;;;;0.22;0.15;;;;;;;27.84;85.66;103554.31;10432656;28;20064;-86
2023/12/17 04:18:58;;;;;;;0.65;0.60;;;;;;;27.90;83.09;103552.53;10456498;28;20807;-86
2023/12/17 04:24:00;;;;;;;1.05;0.70;;;;;;;26.89;85.53;103543.13;10453007;28;20048;-86
2023/12/17 04:29:02;;;;;;;0.03;0.03;;;;;;;27.78;85.28;103550.81;10464457;28;20037;-85
2023/12/17 04:34:04;;;;;;;0.40;0.40;;;;;;;27.90;82.17;103544.56;10442046;28;20054;-85
2023/12/17 04:39:06;;;;;;;0.32;0.32;;;;;;;28.59;82.93;103537.94;10452682;28;20500;-85
2023/12/17 04:44:08;;;;;;;2.72;0.63;;;;;;;27.27;84.76;103535.97;10473735;28;20041;-85
2023/12/17 04:49:10;;;;;;;1.42;0.25;;;;;;;26.91;85.55;103535.19;10462597;28;20124;-84
2023/12/17 04:54:14;;;;;;;0.30;0.25;;;;;;;27.41;84.78;103541.25;10454938;28;20049;-85
2023/12/17 04:59:16;;;;;;;2.25;0.55;;;;;;;26.01;86.45;103539.47;10481105;28;20032;-85
2023/12/17 05:04:18;;;;;;;0.45;0.32;;;;;;;28.97;83.03;103527.00;10446670;28;20037;-86
2023/12/17 05:09:20;;;;;;;0.63;0.43;;;;;;;26.55;88.21;103519.28;10442359;28;20080;-83
2023/12/17 05:14:22;;;;;;;3.03;0.68;;;;;;;25.29;87.26;103528.56;10449634;28;20044;-83
2023/12/17 05:19:24;;;;;;;0.82;0.63;;;;;;;27.99;84.93;103518.94;10452438;28;20045;-84
2023/12/17 05:24:26;;;;;;;0.30;0.15;;;;;;;27.91;85.22;103519.84;10453817;28;20130;-84
2023/12/17 05:29:27;;;;;;;0.30;0.28;;;;;;;27.99;82.72;103525.97;10436050;28;20049;-83
2023/12/17 05:34:29;;;;;;;0.40;0.35;;;;;;;27.02;86.31;103514.00;10442197;28;20104;-84
2023/12/17 05:39:31;;;;;;;1.05;0.47;;;;;;;28.34;84.29;103511.63;10431803;28;20056;-85
2023/12/17 05:44:33;;;;;;;1.77;1.10;;;;;;;27.14;83.54;103511.34;10454698;28;20071;-84
2023/12/17 05:49:38;;;;;;;1.05;0.95;;;;;;;26.53;86.45;103513.16;10444243;28;20067;-83
2023/12/17 05:54:40;;;;;;;1.30;0.95;;;;;;;26.00;86.82;103516.56;10460416;28;20054;-85
2023/12/17 05:59:42;;;;;;;4.38;0.75;;;;;;;26.63;88.75;103508.72;10447716;28;20411;-84
2023/12/17 06:04:44;;;;;;;1.23;0.52;;;;;;;28.26;84.67;103503.75;10450558;28;20060;-86
2023/12/17 06:09:46;;;;;;;4.13;1.25;;;;;;;26.74;87.04;103511.38;10457923;28;20055;-84
2023/12/17 06:14:48;;;;;;;6.68;1.05;;;;;;;25.92;86.32;103508.59;10464178;28;20400;-85
2023/12/17 06:19:50;;;;;;;0.52;0.43;;;;;;;26.87;85.01;103512.28;10447832;28;20416;-86
2023/12/17 06:24:52;;;;;;;1.05;0.22;;;;;;;27.82;83.82;103519.00;10455734;28;20045;-87
2023/12/17 06:29:54;;;;;;;4.47;1.17;;;;;;;27.43;82.89;103528.03;10461242;28;20045;-86
2023/12/17 06:34:56;;;;;;;1.42;1.17;;;;;;;27.67;83.79;103532.31;10466221;28;20041;-86
2023/12/17 06:39:58;;;;;;;0.63;0.57;;;;;;;27.52;85.21;103534.16;10448234;28;20049;-86
2023/12/17 06:45:01;;;;;;;4.65;1.27;;;;;;;28.02;85.40;103533.94;10444073;28;20052;-86
2023/12/17 06:50:03;;;;;;;1.23;0.98;;;;;;;26.78;83.28;103539.59;10452806;28;20032;-83
2023/12/17 06:55:06;;;;;;;1.58;0.70;;;;;;;27.02;84.04;103549.28;10445769;28;20048;-85
2023/12/17 07:00:09;;;;;;;0.47;0.47;;;;;;;27.38;82.98;103549.19;10453130;28;20055;-85
2023/12/17 07:05:12;;;;;;;4.15;0.95;;;;;;;27.93;81.80;103542.78;10430206;28;20496;-85
2023/12/17 07:10:14;;;;;;;0.57;0.57;;;;;;;27.33;82.43;103550.97;10464981;28;20049;-84
2023/12/17 07:15:17;;;;;;;0.45;0.40;;;;;;;27.30;85.35;103546.56;10452702;28;20491;-86
2023/12/17 07:20:19;;;;;;;0.73;0.73;;;;;;;26.89;85.10;103543.13;10449905;28;20048;-84
2023/12/17 07:25:21;;;;;;;1.00;0.65;;;;;;;27.13;84.38;103546.63;10447386;28;20040;-85
2023/12/17 07:30:23;;;;;;;0.65;0.57;;;;;;;26.75;85.53;103531.63;10446537;28;20055;-85
2023/12/17 07:35:26;;;;;;;1.70;0.90;;;;;;;25.62;86.43;103524.38;10454136;28;20037;-86
2023/12/17 07:40:27;;;;;;;0.98;0.77;;;;;;;24.90;89.18;103524.81;10429431;28;20067;-86
2023/12/17 07:45:29;;;;;;;1.23;1.02;;;;;;;26.63;84.62;103548.38;10450970;28;20404;-84
2023/12/17 07:50:31;;;;;;;1.05;0.73;;;;;;;25.97;82.36;103550.00;10457409;28;20057;-83
2023/12/17 07:55:33;;;;;;;1.00;0.63;;;;;;;27.98;81.72;103553.34;10441905;28;20124;-86
2023/12/17 08:00:35;;;;;;;0.32;0.32;;;;;;;27.03;83.68;103560.72;10446349;28;20037;-85
2023/12/17 08:05:37;;;;;;;1.75;0.73;;;;;;;24.66;88.58;103563.28;10447998;28;20041;-84
2023/12/17 08:10:38;;;;;;;7.28;1.58;;;;;;;26.91;86.09;103551.94;10443315;28;20492;-85
2023/12/17 08:15:40;;;;;;;0.55;0.52;;;;;;;25.37;86.34;103556.75;10434839;28;20063;-86
2023/12/17 08:20:42;;;;;;;3.58;1.20;;;;;;;26.63;84.42;103547.50;10451869;28;20087;-85
2023/12/17 08:25:43;;;;;;;1.70;1.33;;;;;;;26.19;83.42;103559.78;10429658;28;20049;-85
2023/12/17 08:30:45;;;;;;;2.17;0.63;;;;;;;26.58;84.89;103547.50;10461488;28;20052;-84
2023/12/17 08:35:47;;;;;;;2.30;0.80;;;;;;;27.46;83.43;103544.78;10446833;28;20052;-85
2023/12/17 08:40:49;;;;;;;2.40;1.05;;;;;;;27.17;84.65;103537.78;10445896;28;20407;-86
2023/12/17 08:45:51;;;;;;;1.33;0.80;;;;;;;25.84;87.67;103534.13;10447465;28;20662;-85
2023/12/17 08:50:52;;;;;;;1.50;1.30;;;;;;;25.90;85.61;103521.81;10455322;28;20045;-86
2023/12/17 08:55:54;;;;;;;2.08;0.57;;;;;;;24.63;91.36;103526.31;10436800;28;20095;-85
2023/12/17 09:00:56;;;;;;;0.88;0.40;;;;;;;26.11;88.46;103530.69;10443241;28;20462;-85
2023/12/17 09:05:59;;;;;;;0.17;0.17;;;;;;;25.32;91.04;103535.59;10456606;28;20236;-85
2023/12/17 09:11:01;;;;;;;1.23;0.98;;;;;;;24.77;91.01;103525.56;10446774;28;20571;-83
2023/12/17 09:16:03;;;;;;;0.98;0.43;;;;;;;25.36;88.65;103526.84;10455975;28;20037;-83
2023/12/17 09:21:05;;;;;;;0.38;0.38;;;;;;;26.59;87.35;103528.09;10449146;28;20041;-86
2023/12/17 09:26:07;;;;;;;2.72;1.30;;;;;;;24.60;91.16;103526.31;10450034;28;20049;-86
2023/12/17 09:31:09;;;;;;;0.50;0.40;;;;;;;25.63;90.98;103527.88;10424858;28;20095;-84
2023/12/17 09:36:11;;;;;;;1.05;0.95;;;;;;;25.72;87.85;103527.06;10449768;28;20510;-85
2023/12/17 09:41:12;;;;;;;1.83;0.60;;;;;;;27.44;85.36;103530.66;10436782;28;20053;-85
2023/12/17 09:46:14;;;;;;;1.52;0.68;;;;;;;27.34;85.47;103518.31;10445733;28;20044;-85
2023/12/17 09:51:18;;;;;;;0.45;0.30;;;;;;;25.09;89.08;103522.28;10451533;28;20049;-82
2023/12/17 09:56:20;;;;;;;3.63;1.13;;;;;;;24.57;88.69;103525.41;10454340;28;20068;-83
2023/12/17 10:01:22;;;;;;;0.47;0.43;;;;;;;25.42;86.33;103518.13;10452758;28;20685;-82
2023/12/17 10:06:24;;;;;;;1.52;1.25;;;;;;;25.09;87.56;103531.09;10451193;28;20052;-82
2023/12/17 10:11:27;;;;;;;0.22;0.20;;;;;;;25.32;88.71;103522.41;10446700;28;20641;-85
2023/12/17 10:16:29;;;;;;;1.10;0.77;;;;;;;26.97;85.46;103515.78;10453328;28;20047;-86
2023/12/17 10:21:31;;;;;;;2.28;1.45;;;;;;;22.92;91.74;103525.97;10451049;28;20145;-82
2023/12/17 10:26:49;;;;;;;1.63;0.32;;;;;;;25.52;88.73;103522.56;10453021;28;20045;-84
2023/12/17 10:31:52;;;;;;;1.95;0.38;;;;;;;24.79;87.97;103518.56;10447373;28;20102;-88
2023/12/17 10:36:54;;;;;;;0.00;0.00;;;;;;;24.63;89.08;103510.50;10435715;28;20140;-82
2023/12/17 10:42:01;;;;;;;0.65;0.65;;;;;;;24.74;90.49;103512.38;10444812;28;20041;-82
2023/12/17 10:47:04;;;;;;;0.73;0.45;;;;;;;24.34;89.28;103505.84;10444998;28;20515;-84
2023/12/17 10:52:06;;;;;;;0.25;0.25;;;;;;;23.14;91.52;103514.00;10429817;28;20466;-85
2023/12/17 10:57:12;;;;;;;0.20;0.13;;;;;;;24.49;92.04;103505.13;10449669;28;20069;-85
2023/12/17 11:02:15;;;;;;;0.65;0.60;;;;;;;25.87;86.71;103494.50;10465766;28;20036;-83
2023/12/17 11:07:23;;;;;;;2.28;0.60;;;;;;;24.53;88.56;103492.88;10443296;28;20050;-83
2023/12/17 11:12:44;;;;;;;0.10;0.10;;;;;;;23.40;92.49;103479.34;10447277;28;20064;-84
2023/12/17 11:17:47;;;;;;;1.08;0.77;;;;;;;24.01;95.49;103478.34;10449158;28;20168;-84
2023/12/17 11:22:50;;;;;;;0.43;0.38;;;;;;;24.66;91.06;103478.94;10463282;28;20044;-82
2023/12/17 11:27:54;;;;;;;0.47;0.47;;;;;;;23.63;91.68;103476.13;10443988;28;20077;-83
2023/12/17 11:33:01;;;;;;;0.40;0.30;;;;;;;24.75;89.15;103482.53;10429210;28;20052;-82
2023/12/17 11:38:04;;;;;;;0.90;0.75;;;;;;;23.74;87.54;103478.88;10455409;28;20049;-83
2023/12/17 11:43:07;;;;;;;1.80;1.13;;;;;;;22.64;96.35;103480.81;10446925;28;20147;-85
2023/12/17 11:48:12;;;;;;;4.28;1.55;;;;;;;24.39;92.69;103461.97;10440287;28;20583;-85
2023/12/17 11:53:17;;;;;;;0.68;0.57;;;;;;;23.36;93.94;103456.47;10447055;28;20155;-85
2023/12/17 11:58:21;;;;;;;0.70;0.70;;;;;;;24.21;93.10;103446.91;10443810;28;20049;-84
2023/12/17 12:03:24;;;;;;;3.05;1.25;;;;;;;23.92;92.44;103441.34;10440619;28;20056;-83
2023/12/17 12:08:36;;;;;;;0.75;0.50;;;;;;;24.85;92.50;103448.31;10446172;28;20130;-85
2023/12/17 12:13:43;;;;;;;1.92;1.48;;;;;;;24.85;91.83;103436.88;10459221;28;20522;-86
2023/12/17 12:18:45;;;;;;;0.88;0.85;;;;;;;23.90;93.20;103440.44;10436902;28;20050;-85
2023/12/17 12:23:52;;;;;;;1.02;0.35;;;;;;;24.28;93.22;103437.31;10432215;28;20045;-84
2023/12/17 12:29:00;;;;;;;2.40;0.85;;;;;;;22.65;93.83;103437.06;10433367;28;20055;-84
2023/12/17 12:34:04;;;;;;;0.93;0.68;;;;;;;23.61;91.68;103417.31;10432358;28;20106;-84
2023/12/17 12:39:07;;;;;;;1.70;1.27;;;;;;;24.68;89.56;103419.22;10439928;28;20519;-85
2023/12/17 12:44:13;;;;;;;1.52;1.25;;;;;;;25.78;88.29;103406.47;10439809;28;20048;-85
2023/12/17 12:49:17;;;;;;;2.53;1.08;;;;;;;24.93;88.67;103394.75;10453357;28;20099;-84
2023/12/17 12:54:19;;;;;;;0.52;0.40;;;;;;;24.84;85.14;103408.75;10454211;28;20136;-84
2023/12/17 12:59:21;;;;;;;1.67;1.38;;;;;;;26.36;82.68;103396.84;10455457;28;20400;-85
2023/12/17 13:04:26;;;;;;;0.82;0.65;;;;;;;26.87;83.34;103386.19;10462887;28;20555;-84
2023/12/17 13:09:27;;;;;;;2.28;1.95;;;;;;;25.98;83.17;103385.38;10445928;28;20052;-83
2023/12/17 13:14:30;;;;;;;1.02;0.75;;;;;;;23.83;89.82;103370.16;10447974;28;20052;-84
2023/12/17 13:19:32;;;;;;;2.17;0.63;;;;;;;27.31;81.92;103364.81;10444073;28;20052;-85
2023/12/17 13:24:35;;;;;;;1.88;0.80;;;;;;;25.09;87.35;103361.41;10478526;28;20045;-84
2023/12/17 13:29:36;;;;;;;27.05;1.25;;;;;;;24.71;85.02;103345.41;10440455;28;20048;-84
2023/12/17 13:34:38;;;;;;;1.48;1.27;;;;;;;25.49;83.08;103340.47;10447124;28;20045;-85
2023/12/17 13:39:40;;;;;;;0.57;0.47;;;;;;;25.84;85.61;103323.75;10438920;28;20083;-85
2023/12/17 13:44:42;;;;;;;1.95;1.30;;;;;;;26.16;84.42;103324.63;10455987;28;20049;-84
2023/12/17 13:49:44;;;;;;;3.17;1.33;;;;;;;25.88;85.06;103320.22;10442415;28;20131;-85
2023/12/17 13:54:46;;;;;;;1.08;0.95;;;;;;;25.38;85.37;103313.13;10445260;28;20136;-84
2023/12/17 13:59:48;;;;;;;3.30;1.50;;;;;;;26.15;83.82;103315.84;10443336;28;20107;-84
2023/12/17 14:04:50;;;;;;;0.80;0.68;;;;;;;25.60;84.23;103320.22;10456512;28;20113;-84
2023/12/17 14:09:52;;;;;;;0.95;0.65;;;;;;;23.90;87.38;103311.44;10444642;28;20059;-85
2023/12/17 14:14:55;;;;;;;1.13;0.63;;;;;;;25.33;83.94;103308.72;10456743;28;20090;-85
2023/12/17 14:19:57;;;;;;;3.85;1.90;;;;;;;23.59;87.27;103313.78;10431329;28;20456;-85
2023/12/17 14:24:58;;;;;;;10.07;1.58;;;;;;;23.66;87.08;103317.38;10452926;28;20060;-84
2023/12/17 14:30:00;;;;;;;1.92;0.93;;;;;;;24.42;83.69;103304.81;10458116;28;20037;-84
2023/12/17 14:35:02;;;;;;;1.23;0.85;;;;;;;24.25;85.15;103313.47;10445654;28;20104;-85
2023/12/17 14:40:07;;;;;;;3.03;1.88;;;;;;;25.49;81.54;103308.78;10453406;28;20139;-85
2023/12/17 14:45:10;;;;;;;0.85;0.57;;;;;;;26.20;81.98;103295.56;10456303;28;20032;-85
2023/12/17 14:50:12;;;;;;;2.67;1.30;;;;;;;24.46;83.27;103301.34;10450611;28;20086;-83
2023/12/17 14:55:13;;;;;;;1.10;0.90;;;;;;;25.90;83.29;103293.84;10425690;28;20051;-84
2023/12/17 15:00:16;;;;;;;1.48;1.30;;;;;;;24.46;85.68;103281.13;10435010;28;20132;-84
2023/12/17 15:05:18;;;;;;;1.92;1.02;;;;;;;26.12;81.72;103289.44;10442422;28;20099;-86
2023/12/17 15:10:20;;;;;;;1.63;0.85;;;;;;;24.55;83.55;103289.09;10453291;28;20514;-85
2023/12/17 15:15:21;;;;;;;1.77;0.88;;;;;;;24.29;86.07;103278.41;10443493;28;20045;-85
2023/12/17 15:20:23;;;;;;;8.02;2.45;;;;;;;24.50;84.84;103266.22;10460197;28;20045;-84
2023/12/17 15:25:25;;;;;;;1.83;1.15;;;;;;;24.27;83.13;103274.00;10450210;28;20048;-84
2023/12/17 15:30:27;;;;;;;1.95;1.20;;;;;;;24.10;82.69;103271.22;10433643;28;20107;-84
2023/12/17 15:35:29;;;;;;;1.95;1.17;;;;;;;24.64;81.95;103267.16;10443487;28;20064;-85
2023/12/17 15:40:30;;;;;;;2.95;1.17;;;;;;;23.81;81.30;103287.66;10434169;28;20055;-85
2023/12/17 15:45:33;;;;;;;3.75;1.10;;;;;;;23.16;83.25;103287.88;10434649;28;20484;-84
2023/12/17 15:50:36;;;;;;;1.42;1.00;;;;;;;24.17;82.66;103289.75;10424058;28;20053;-84
2023/12/17 15:55:38;;;;;;;1.65;1.10;;;;;;;24.54;82.27;103286.41;10435792;28;20048;-85
2023/12/17 16:00:39;;;;;;;0.57;0.57;;;;;;;23.60;84.82;103286.63;10421037;28;20128;-85
2023/12/17 16:05:43;;;;;;;0.25;0.25;;;;;;;24.24;81.94;103280.09;10419684;28;20540;-85
2023/12/17 16:10:45;;;;;;;1.58;0.85;;;;;;;24.64;79.05;103279.47;10457978;28;20045;-84
2023/12/17 16:15:48;;;;;;;1.25;0.70;;;;;;;24.95;80.25;103276.94;10447794;28;20131;-84
2023/12/17 16:20:50;;;;;;;2.78;1.25;;;;;;;21.98;84.09;103282.78;10451571;28;20052;-83
2023/12/17 16:25:53;;;;;;;0.70;0.70;;;;;;;23.10;82.78;103275.59;10442251;28;20410;-84
2023/12/17 16:30:54;;;;;;;1.13;1.02;;;;;;;25.09;80.65;103271.72;10441323;28;20055;-84
2023/12/17 16:35:56;;;;;;;1.48;1.38;;;;;;;23.67;81.93;103269.16;10435416;28;20121;-84
2023/12/17 16:40:58;;;;;;;1.90;1.50;;;;;;;23.53;81.63;103269.00;10422147;28;20045;-83
2023/12/17 16:46:00;;;;;;;0.52;0.40;;;;;;;24.05;81.02;103258.94;10456348;28;20702;-84
2023/12/17 16:51:02;;;;;;;0.60;0.55;;;;;;;23.86;83.95;103264.91;10448361;28;20049;-84
2023/12/17 16:56:05;;;;;;;0.98;0.75;;;;;;;22.74;81.88;103255.00;10412183;28;20072;-84
2023/12/17 17:01:07;;;;;;;0.90;0.75;;;;;;;22.69;84.89;103241.78;10444369;28;20055;-83
2023/12/17 17:06:11;;;;;;;4.03;0.85;;;;;;;23.03;84.56;103234.31;10455232;28;20054;-83
2023/12/17 17:11:13;;;;;;;0.80;0.63;;;;;;;23.97;81.11;103222.91;10433696;28;20046;-82
2023/12/17 17:16:15;;;;;;;0.98;0.65;;;;;;;22.08;85.85;103216.44;10445054;28;20500;-82
2023/12/17 17:21:16;;;;;;;0.80;0.60;;;;;;;23.72;83.41;103207.75;10465160;28;20064;-83
2023/12/17 17:26:19;;;;;;;1.65;1.52;;;;;;;24.06;82.72;103209.78;10468465;28;20045;-83
2023/12/17 17:31:21;;;;;;;7.50;1.65;;;;;;;24.70;80.50;103206.59;10454710;28;20502;-83
2023/12/17 17:36:23;;;;;;;1.75;0.35;;;;;;;22.62;80.49;103209.31;10457989;28;20484;-82
2023/12/17 17:41:25;;;;;;;0.85;0.68;;;;;;;23.58;81.81;103198.88;10439580;28;20120;-83
2023/12/17 17:46:27;;;;;;;0.32;0.32;;;;;;;22.97;83.68;103186.94;10452298;28;20041;-83
2023/12/17 17:51:28;;;;;;;1.45;0.80;;;;;;;22.38;83.15;103183.56;10446350;28;20084;-83
2023/12/17 17:56:30;;;;;;;0.60;0.25;;;;;;;21.93;84.43;103182.13;10437884;28;20025;-83
2023/12/17 18:01:35;;;;;;;0.25;0.25;;;;;;;21.45;84.52;103192.69;10453491;28;20144;-83
2023/12/17 18:06:37;;;;;;;1.00;1.00;;;;;;;21.65;84.73;103200.03;10448156;28;20041;-83
2023/12/17 18:11:39;;;;;;;0.30;0.30;;;;;;;22.02;85.91;103195.34;10443367;28;20050;-83
2023/12/17 18:16:40;;;;;;;1.52;1.20;;;;;;;22.18;86.16;103184.22;10439522;28;20041;-84
2023/12/17 18:21:43;;;;;;;1.15;0.63;;;;;;;23.69;81.89;103170.91;10431306;28;20496;-84
2023/12/17 18:26:45;;;;;;;1.00;0.80;;;;;;;22.29;84.16;103175.59;10432284;28;20132;-84
2023/12/17 18:31:47;;;;;;;4.82;0.98;;;;;;;23.14;82.53;103169.56;10453721;28;20056;-83
2023/12/17 18:36:49;;;;;;;0.80;0.30;;;;;;;21.36;83.88;103182.03;10436686;28;20492;-83
2023/12/17 18:41:51;;;;;;;0.80;0.47;;;;;;;22.84;82.80;103182.38;10453600;28;20503;-80
2023/12/17 18:46:53;;;;;;;0.47;0.45;;;;;;;21.80;84.73;103174.03;10442152;28;20041;-80
2023/12/17 18:51:55;;;;;;;5.30;1.25;;;;;;;20.89;87.59;103156.75;10426147;28;20056;-80
2023/12/17 18:56:57;;;;;;;1.60;0.80;;;;;;;22.53;81.76;103161.91;10437815;28;20041;-80
2023/12/17 19:01:59;;;;;;;1.02;0.90;;;;;;;21.63;85.18;103171.16;10467724;28;20042;-80
2023/12/17 19:07:01;;;;;;;0.20;0.20;;;;;;;22.29;81.39;103175.59;10445132;28;20049;-80
2023/12/17 19:12:03;;;;;;;1.15;0.55;;;;;;;22.28;82.92;103176.47;10445385;28;20049;-80
2023/12/17 19:17:06;;;;;;;0.95;0.43;;;;;;;23.35;80.37;103181.16;10462881;28;20080;-80
2023/12/17 19:22:09;;;;;;;0.75;0.73;;;;;;;22.47;79.69;103182.88;10439760;28;20136;-80
2023/12/17 19:27:11;;;;;;;0.77;0.52;;;;;;;24.27;76.65;103190.59;10435123;28;20119;-79
2023/12/17 19:32:13;;;;;;;0.95;0.47;;;;;;;22.66;79.15;103189.22;10436196;28;20052;-79
2023/12/17 19:37:14;;;;;;;1.60;0.60;;;;;;;23.05;78.49;103187.88;10441507;28;20045;-79
2023/12/17 19:42:16;;;;;;;1.45;0.82;;;;;;;21.91;82.39;103191.69;10428821;28;20048;-80
2023/12/17 19:47:18;;;;;;;0.77;0.63;;;;;;;21.74;79.78;103168.72;10461678;28;20045;-79
2023/12/17 19:52:20;;;;;;;1.25;1.15;;;;;;;20.32;86.04;103150.34;10423977;28;20057;-79
2023/12/17 19:57:22;;;;;;;5.93;0.82;;;;;;;21.65;81.19;103152.81;10435161;28;20072;-79
2023/12/17 20:02:23;;;;;;;1.27;1.17;;;;;;;23.14;77.82;103161.66;10430170;28;20514;-79
2023/12/17 20:07:25;;;;;;;0.05;0.05;;;;;;;22.59;78.24;103182.13;10437008;28;20484;-80
2023/12/17 20:12:27;;;;;;;2.17;1.45;;;;;;;24.04;77.15;103178.19;10438892;28;20045;-79
2023/12/17 20:17:29;;;;;;;0.10;0.10;;;;;;;23.16;74.93;103166.94;10456653;28;20049;-80
2023/12/17 20:22:31;;;;;;;1.65;1.55;;;;;;;23.30;74.73;103167.09;10454358;28;20056;-80
2023/12/17 20:27:32;;;;;;;0.30;0.22;;;;;;;23.99;73.64;103174.66;10428444;28;20044;-80
2023/12/17 20:32:34;;;;;;;0.43;0.40;;;;;;;24.04;73.31;103172.91;10461137;28;20522;-79
2023/12/17 20:37:36;;;;;;;0.88;0.45;;;;;;;23.68;73.81;103173.56;10426299;28;20044;-79
2023/12/17 20:42:38;;;;;;;1.77;1.10;;;;;;;22.56;74.36;103176.84;10446849;28;20131;-80
2023/12/17 20:47:41;;;;;;;0.28;0.20;;;;;;;22.99;74.14;103169.41;10450867;28;20048;-79
2023/12/17 20:52:42;;;;;;;3.15;0.50;;;;;;;24.01;72.18;103157.13;10437321;28;20059;-80
2023/12/17 20:57:45;;;;;;;1.60;0.43;;;;;;;21.03;76.52;103165.75;10425840;28;20480;-79
2023/12/17 21:02:46;;;;;;;0.00;0.00;;;;;;;23.34;74.59;103168.00;10449890;28;20056;-79
2023/12/17 21:07:49;;;;;;;0.90;0.52;;;;;;;22.47;74.70;103167.09;10432369;28;20049;-79
2023/12/17 21:12:51;;;;;;;1.42;0.28;;;;;;;23.31;72.98;103171.50;10449029;28;20554;-79
2023/12/17 21:17:53;;;;;;;0.00;0.00;;;;;;;22.88;73.02;103182.44;10451995;28;20064;-80
2023/12/17 21:22:54;;;;;;;0.63;0.63;;;;;;;24.08;71.17;103189.59;10443246;28;20040;-80
2023/12/17 21:27:56;;;;;;;0.30;0.30;;;;;;;22.69;70.02;103183.13;10454127;28;20455;-79
2023/12/17 21:32:58;;;;;;;0.50;0.22;;;;;;;22.15;72.71;103183.28;10455553;28;20037;-79
2023/12/17 21:38:00;;;;;;;0.30;0.28;;;;;;;21.64;73.38;103183.44;10464647;28;20068;-79
2023/12/17 21:43:02;;;;;;;1.00;0.32;;;;;;;21.97;72.65;103176.03;10449575;28;20118;-79
2023/12/17 21:48:04;;;;;;;0.73;0.45;;;;;;;22.99;71.93;103177.28;10474977;28;20391;-79
2023/12/17 21:53:06;;;;;;;0.22;0.22;;;;;;;22.58;72.68;103170.72;10457564;28;20083;-79
2023/12/17 21:58:09;;;;;;;0.50;0.38;;;;;;;21.91;73.58;103168.94;10449632;28;20132;-80
2023/12/17 22:03:11;;;;;;;0.00;0.00;;;;;;;23.04;72.72;103170.34;10458093;28;20053;-81
2023/12/17 22:08:13;;;;;;;0.85;0.45;;;;;;;20.56;71.73;103176.16;10455368;28;20135;-78
2023/12/17 22:13:15;;;;;;;0.20;0.20;;;;;;;21.10;75.93;103173.72;10444938;28;20045;-79
2023/12/17 22:18:16;;;;;;;0.55;0.55;;;;;;;23.47;71.10;103169.00;10444913;28;20103;-80
2023/12/17 22:23:18;;;;;;;1.50;0.60;;;;;;;23.36;69.78;103177.66;10452609;28;20036;-80
2023/12/17 22:28:20;;;;;;;1.73;0.70;;;;;;;22.80;70.67;103182.38;10432072;28;20069;-80
2023/12/17 22:33:22;;;;;;;0.20;0.20;;;;;;;23.36;69.83;103185.56;10440130;28;20049;-80
2023/12/17 22:38:24;;;;;;;0.30;0.20;;;;;;;23.48;69.99;103189.19;10446337;28;20041;-80
2023/12/17 22:43:26;;;;;;;0.73;0.50;;;;;;;22.53;72.01;103200.41;10438710;28;20504;-80
2023/12/17 22:48:28;;;;;;;0.85;0.60;;;;;;;23.55;69.46;103215.53;10447626;28;20452;-79
2023/12/17 22:53:30;;;;;;;0.82;0.73;;;;;;;23.85;69.43;103211.38;10462109;28;20081;-80
2023/12/17 22:58:31;;;;;;;0.68;0.43;;;;;;;22.93;71.09;103203.53;10458185;28;20407;-80
2023/12/17 23:03:33;;;;;;;1.52;0.90;;;;;;;21.38;74.20;103201.31;10449987;28;20059;-79
2023/12/17 23:08:35;;;;;;;0.68;0.63;;;;;;;23.43;72.71;103184.75;10445098;28;20041;-79